Time;durP1;ratioP1;P1;durP2;ratioP2;P2;SDS_P1;SDS_P2;PMS_P1;PMS_P2;Temp;Humidity;BMP_temperature;BMP_pressure;BME280_temperature;BME280_humidity;BME280_pressure;Samples;Min_cycle;Max_cycle;Signal;HPM_P1;HPM_P2
2024/04/16 00:01:46;;;;;;;0.90;0.90;;;;;;;4.36;85.66;97765.31;6423676;22;20002;-92
2024/04/16 00:04:11;;;;;;;0.90;0.90;;;;;;;4.43;85.13;97751.50;6380635;22;19998;-91
2024/04/16 00:06:37;;;;;;;0.80;0.80;;;;;;;4.35;85.24;97748.56;6381088;22;20426;-91
2024/04/16 00:09:02;;;;;;;0.90;0.90;;;;;;;4.45;85.32;97747.16;6424013;22;20017;-91
2024/04/16 00:11:28;;;;;;;0.90;0.90;;;;;;;4.40;85.14;97746.09;6381790;22;20086;-93
2024/04/16 00:13:53;;;;;;;0.80;0.80;;;;;;;4.51;85.71;97731.56;6425104;22;20017;-91
2024/04/16 00:16:31;;;;;;;0.90;0.90;;;;;;;4.50;84.44;97739.41;6345204;22;20002;-93
2024/04/16 00:18:56;;;;;;;1.00;1.00;;;;;;;4.48;84.33;97727.88;6381668;22;20333;-93
2024/04/16 00:21:22;;;;;;;0.90;0.90;;;;;;;4.47;84.90;97726.09;6381872;22;20013;-92
2024/04/16 00:23:47;;;;;;;0.82;0.82;;;;;;;4.58;84.20;97708.88;6380340;22;20077;-91
2024/04/16 00:26:13;;;;;;;0.90;0.90;;;;;;;4.60;83.85;97718.69;6380447;22;20112;-91
2024/04/16 00:28:38;;;;;;;0.90;0.90;;;;;;;4.70;84.09;97729.59;6380333;22;19995;-92
2024/04/16 00:31:03;;;;;;;0.90;0.90;;;;;;;4.61;83.98;97699.34;6423659;22;20069;-91
2024/04/16 00:33:29;;;;;;;0.90;0.90;;;;;;;4.69;83.69;97717.19;6338995;22;19998;-91
2024/04/16 00:35:54;;;;;;;0.95;0.95;;;;;;;4.77;83.02;97721.91;6380527;22;20005;-91
2024/04/16 00:38:21;;;;;;;0.80;0.80;;;;;;;4.83;82.06;97731.78;6380496;22;20002;-91
2024/04/16 00:40:47;;;;;;;0.90;0.90;;;;;;;4.82;82.66;97707.09;6381120;22;20385;-91
2024/04/16 00:43:20;;;;;;;0.80;0.80;;;;;;;4.65;84.41;97692.44;6382255;22;20448;-91
2024/04/16 00:45:58;;;;;;;0.90;0.90;;;;;;;4.60;84.54;97699.28;6386015;22;20006;-94
2024/04/16 00:48:26;;;;;;;0.90;0.90;;;;;;;4.52;86.11;97716.59;6391492;22;20006;-90
2024/04/16 00:50:55;;;;;;;0.90;0.90;;;;;;;4.49;85.81;97703.28;6350599;22;20038;-92
2024/04/16 00:53:23;;;;;;;0.80;0.80;;;;;;;4.48;84.79;97680.34;6426402;22;20005;-91
2024/04/16 00:55:50;;;;;;;0.90;0.90;;;;;;;4.52;84.47;97688.44;6341777;22;20073;-93
2024/04/16 00:58:18;;;;;;;1.00;1.00;;;;;;;4.57;84.66;97710.63;6381760;22;20046;-90
2024/04/16 01:00:45;;;;;;;0.80;0.80;;;;;;;4.56;84.61;97707.94;6341036;22;20005;-91
2024/04/16 01:03:11;;;;;;;0.90;0.90;;;;;;;4.62;83.58;97689.66;6340860;22;19998;-92
2024/04/16 01:05:39;;;;;;;0.90;0.90;;;;;;;4.57;84.59;97681.59;6426108;22;20027;-92
2024/04/16 01:08:07;;;;;;;0.80;0.80;;;;;;;4.58;83.81;97671.91;6434021;22;20005;-93
2024/04/16 01:10:39;;;;;;;0.80;0.80;;;;;;;4.66;83.61;97686.28;6391132;22;19990;-92
2024/04/16 01:13:04;;;;;;;0.90;0.90;;;;;;;4.72;83.21;97686.50;6388851;22;20009;-93
2024/04/16 01:15:30;;;;;;;0.90;0.90;;;;;;;4.80;82.95;97679.75;6431380;22;19994;-92
2024/04/16 01:17:57;;;;;;;0.90;0.90;;;;;;;4.81;82.28;97670.06;6431626;22;20721;-92
2024/04/16 01:20:23;;;;;;;0.90;0.90;;;;;;;4.82;82.55;97656.91;6431614;22;19994;-92
2024/04/16 01:22:51;;;;;;;0.90;0.90;;;;;;;4.82;83.03;97662.19;6431115;22;20312;-92
2024/04/16 01:25:16;;;;;;;;;;;;;;;4.86;82.48;97656.16;6475651;22;20029;-92
2024/04/16 01:27:42;;;;;;;0.90;0.90;;;;;;;4.81;82.53;97670.97;6389890;22;19922;-92
2024/04/16 01:30:08;;;;;;;0.90;0.90;;;;;;;4.92;82.25;97697.75;6389210;22;19998;-92
2024/04/16 01:32:33;;;;;;;0.90;0.90;;;;;;;4.96;81.50;97690.84;6430074;22;19994;-93
2024/04/16 01:34:58;;;;;;;0.90;0.90;;;;;;;5.02;81.17;97672.53;6430952;22;19990;-92
2024/04/16 01:37:24;;;;;;;0.80;0.80;;;;;;;5.02;81.00;97664.59;6397564;22;20013;-91
2024/04/16 01:39:49;;;;;;;0.90;0.90;;;;;;;4.96;81.04;97654.72;6389600;22;19994;-90
2024/04/16 01:42:15;;;;;;;0.90;0.90;;;;;;;5.04;81.12;97647.06;6431507;22;20006;-91
2024/04/16 01:44:42;;;;;;;0.90;0.90;;;;;;;5.10;80.60;97665.78;6431229;22;20009;-91
2024/04/16 01:47:07;;;;;;;0.98;0.98;;;;;;;5.12;80.37;97650.84;6433532;22;20072;-92
2024/04/16 01:49:34;;;;;;;0.80;0.80;;;;;;;5.20;80.05;97641.41;6433288;22;20010;-93
2024/04/16 01:51:59;;;;;;;0.80;0.80;;;;;;;5.07;80.42;97665.66;6429393;21;20007;-93
2024/04/16 01:54:25;;;;;;;0.80;0.80;;;;;;;4.91;81.54;97666.91;6426517;22;19995;-89
2024/04/16 01:56:51;;;;;;;0.90;0.90;;;;;;;4.82;82.18;97672.75;6423207;22;20146;-91
2024/04/16 01:59:17;;;;;;;0.90;0.90;;;;;;;4.72;82.41;97657.44;6423601;22;19994;-90
2024/04/16 02:01:43;;;;;;;0.90;0.90;;;;;;;4.69;82.27;97657.31;6424977;22;20002;-92
2024/04/16 02:04:08;;;;;;;0.90;0.90;;;;;;;4.77;81.90;97637.34;6423978;22;20017;-92
2024/04/16 02:06:35;;;;;;;0.90;0.90;;;;;;;4.66;83.58;97664.25;6422476;22;20440;-92
2024/04/16 02:09:01;;;;;;;0.80;0.80;;;;;;;4.53;84.16;97671.75;6421508;22;20010;-92
2024/04/16 02:11:28;;;;;;;0.98;0.98;;;;;;;4.40;85.25;97665.97;6418973;22;20081;-92
2024/04/16 02:13:54;;;;;;;0.90;0.90;;;;;;;4.26;87.23;97655.81;6417859;22;20003;-92
2024/04/16 02:16:19;;;;;;;0.90;0.90;;;;;;;4.27;87.27;97664.66;6418194;22;20002;-92
2024/04/16 02:18:45;;;;;;;0.80;0.80;;;;;;;4.18;88.12;97654.66;6418115;22;20005;-94
2024/04/16 02:21:10;;;;;;;0.90;0.90;;;;;;;4.07;89.03;97661.25;6420813;22;19991;-92
2024/04/16 02:23:36;;;;;;;0.80;0.80;;;;;;;4.05;89.71;97673.50;6378215;22;20681;-92
2024/04/16 02:26:01;;;;;;;0.90;0.90;;;;;;;4.11;89.57;97660.53;6419998;22;20050;-91
2024/04/16 02:28:27;;;;;;;0.90;0.90;;;;;;;4.06;90.13;97659.47;6378959;22;20026;-93
2024/04/16 02:30:52;;;;;;;0.98;0.98;;;;;;;4.08;89.79;97661.34;6423443;22;20013;-92
2024/04/16 02:33:20;;;;;;;1.00;1.00;;;;;;;4.08;90.70;97648.13;6428435;22;20042;-92
2024/04/16 02:35:45;;;;;;;0.95;0.95;;;;;;;4.15;90.02;97649.25;6382800;22;20420;-92
2024/04/16 02:38:11;;;;;;;0.80;0.80;;;;;;;4.23;89.37;97636.34;6426944;22;19994;-92
2024/04/16 02:40:36;;;;;;;0.90;0.90;;;;;;;4.23;89.83;97647.78;6425801;22;19994;-92
2024/04/16 02:43:02;;;;;;;0.90;0.90;;;;;;;4.25;88.90;97646.09;6424874;22;20392;-93
2024/04/16 02:45:28;;;;;;;0.90;0.90;;;;;;;4.28;89.18;97627.72;6423722;22;20002;-93
2024/04/16 02:47:54;;;;;;;0.90;0.90;;;;;;;4.33;87.65;97625.25;6422480;22;20005;-90
2024/04/16 02:50:20;;;;;;;0.90;0.90;;;;;;;4.36;87.71;97609.53;6427153;22;20009;-92
2024/04/16 02:52:47;;;;;;;0.80;0.80;;;;;;;4.33;88.21;97612.94;6393501;22;19998;-91
2024/04/16 02:55:17;;;;;;;0.90;0.90;;;;;;;4.41;86.79;97615.88;6439860;22;20009;-91
2024/04/16 02:57:43;;;;;;;0.90;0.90;;;;;;;4.35;87.56;97620.91;6443340;22;19998;-91
2024/04/16 03:00:10;;;;;;;0.90;0.90;;;;;;;4.27;88.08;97638.25;6439688;22;20001;-91
2024/04/16 03:02:36;;;;;;;0.80;0.80;;;;;;;4.27;88.91;97632.97;6424907;22;19990;-91
2024/04/16 03:05:01;;;;;;;0.90;0.90;;;;;;;4.29;89.88;97626.88;6426025;22;20069;-92
2024/04/16 03:07:28;;;;;;;1.00;1.00;;;;;;;4.18;89.25;97622.97;6423809;22;20006;-91
2024/04/16 03:09:54;;;;;;;1.00;1.00;;;;;;;4.15;90.06;97619.31;6428057;22;19999;-92
2024/04/16 03:12:20;;;;;;;1.00;1.00;;;;;;;4.18;89.18;97615.06;6425798;22;20003;-92
2024/04/16 03:14:45;;;;;;;1.00;1.00;;;;;;;4.25;89.21;97616.16;6426338;22;20264;-92
2024/04/16 03:17:10;;;;;;;0.90;0.90;;;;;;;4.20;90.60;97637.09;6384317;22;20010;-92
2024/04/16 03:19:36;;;;;;;0.90;0.90;;;;;;;4.17;90.72;97647.56;6434784;22;20010;-91
2024/04/16 03:22:01;;;;;;;0.80;0.80;;;;;;;4.04;90.94;97625.09;6429583;22;20006;-90
2024/04/16 03:24:27;;;;;;;0.90;0.90;;;;;;;4.12;91.28;97654.44;6422749;22;19995;-89
2024/04/16 03:26:52;;;;;;;0.90;0.90;;;;;;;4.11;89.19;97653.50;6381163;22;20400;-88
2024/04/16 03:29:18;;;;;;;0.93;0.93;;;;;;;3.99;89.54;97641.63;6425756;22;20140;-88
2024/04/16 03:31:43;;;;;;;0.90;0.90;;;;;;;4.03;91.19;97640.91;6424642;22;20090;-89
2024/04/16 03:34:09;;;;;;;0.90;0.90;;;;;;;4.01;90.85;97646.09;6423838;22;19999;-88
2024/04/16 03:36:34;;;;;;;0.90;0.90;;;;;;;3.93;91.78;97655.50;6426115;22;19994;-90
2024/04/16 03:38:59;;;;;;;1.00;1.00;;;;;;;4.03;92.70;97651.44;6384093;22;19994;-90
2024/04/16 03:41:25;;;;;;;1.00;1.00;;;;;;;4.07;92.83;97664.81;6423246;22;20035;-89
2024/04/16 03:43:51;;;;;;;0.80;0.80;;;;;;;4.00;93.33;97681.25;6422294;22;20026;-90
2024/04/16 03:46:16;;;;;;;0.90;0.90;;;;;;;4.04;91.52;97674.34;6424643;22;20009;-91
2024/04/16 03:48:42;;;;;;;0.90;0.90;;;;;;;4.06;90.90;97656.81;6435531;22;20392;-90
2024/04/16 03:51:08;;;;;;;0.90;0.90;;;;;;;3.97;92.09;97662.66;6429762;22;20380;-90
2024/04/16 03:53:33;;;;;;;0.95;0.95;;;;;;;3.98;93.08;97659.19;6473185;22;20404;-91
2024/04/16 03:56:00;;;;;;;0.90;0.90;;;;;;;4.08;92.32;97656.06;6474186;22;19998;-90
2024/04/16 03:58:29;;;;;;;0.90;0.90;;;;;;;4.27;90.74;97665.53;6428311;22;20076;-89
2024/04/16 04:01:06;;;;;;;0.90;0.90;;;;;;;4.19;92.50;97669.63;6389653;22;20012;-89
2024/04/16 04:03:32;;;;;;;1.00;1.00;;;;;;;4.15;92.66;97675.63;6429757;22;20002;-90
2024/04/16 04:05:58;;;;;;;0.90;0.90;;;;;;;4.03;92.54;97669.91;6479387;22;20008;-90
2024/04/16 04:08:23;;;;;;;0.90;0.90;;;;;;;3.91;93.65;97678.25;6471141;22;20387;-90
2024/04/16 04:10:49;;;;;;;0.90;0.90;;;;;;;3.82;92.81;97684.06;6471139;22;20681;-90
2024/04/16 04:13:14;;;;;;;0.90;0.90;;;;;;;3.79;93.22;97685.72;6425646;22;19993;-90
2024/04/16 04:15:40;;;;;;;0.90;0.90;;;;;;;3.81;92.53;97692.84;6470667;22;20012;-90
2024/04/16 04:18:05;;;;;;;0.90;0.90;;;;;;;3.75;92.50;97689.06;6470936;22;20006;-91
2024/04/16 04:20:32;;;;;;;1.00;1.00;;;;;;;3.79;92.72;97696.28;6470482;22;20014;-90
2024/04/16 04:22:58;;;;;;;1.00;1.00;;;;;;;3.79;92.45;97697.16;6470949;22;19994;-89
2024/04/16 04:25:24;;;;;;;1.00;1.00;;;;;;;3.91;91.68;97702.00;6430778;22;20015;-90
2024/04/16 04:27:51;;;;;;;0.90;0.90;;;;;;;3.85;91.45;97705.31;6473542;22;20738;-89
2024/04/16 04:30:17;;;;;;;1.00;1.00;;;;;;;4.00;87.89;97701.47;6428841;22;20108;-90
2024/04/16 04:32:48;;;;;;;0.90;0.90;;;;;;;4.06;87.50;97696.41;6428856;22;20006;-91
2024/04/16 04:35:14;;;;;;;0.98;0.98;;;;;;;4.15;86.87;97690.56;6429114;22;19994;-91
2024/04/16 04:37:39;;;;;;;0.90;0.90;;;;;;;4.05;86.05;97695.50;6388106;22;20001;-91
2024/04/16 04:40:05;;;;;;;0.90;0.90;;;;;;;3.86;86.85;97688.63;6386175;22;19993;-91
2024/04/16 04:42:30;;;;;;;0.90;0.90;;;;;;;3.79;87.23;97683.97;6471416;22;20431;-91
2024/04/16 04:44:56;;;;;;;0.95;0.95;;;;;;;3.60;88.32;97689.38;6427607;22;20124;-91
2024/04/16 04:47:21;;;;;;;0.90;0.90;;;;;;;3.66;89.47;97684.34;6429513;22;20297;-92
2024/04/16 04:49:47;;;;;;;0.90;0.90;;;;;;;3.82;89.19;97694.63;6389326;22;20093;-91
2024/04/16 04:52:13;;;;;;;0.90;0.90;;;;;;;3.76;89.78;97697.03;6391790;22;20003;-90
2024/04/16 04:54:38;;;;;;;0.90;0.90;;;;;;;3.82;89.95;97702.53;6430542;22;20590;-92
2024/04/16 04:57:04;;;;;;;0.90;0.90;;;;;;;4.05;88.83;97708.72;6479117;22;20130;-92
2024/04/16 04:59:30;;;;;;;0.90;0.90;;;;;;;4.17;88.07;97710.94;6451058;22;19986;-92
2024/04/16 05:01:55;;;;;;;0.90;0.90;;;;;;;4.26;87.89;97713.00;6450934;22;19986;-92
2024/04/16 05:04:21;;;;;;;0.90;0.90;;;;;;;4.18;87.89;97710.09;6451670;21;20124;-91
2024/04/16 05:06:47;;;;;;;0.90;0.90;;;;;;;4.46;86.95;97708.47;6479538;22;20615;-93
2024/04/16 05:09:12;;;;;;;0.90;0.90;;;;;;;4.49;87.57;97709.44;6477155;22;19998;-92
2024/04/16 05:11:38;;;;;;;0.90;0.90;;;;;;;4.49;86.67;97711.19;6433781;22;20742;-91
2024/04/16 05:14:07;;;;;;;0.90;0.90;;;;;;;4.68;84.37;97713.66;6432632;22;20008;-92
2024/04/16 05:16:33;;;;;;;0.90;0.90;;;;;;;4.66;84.54;97718.00;6476950;22;20013;-92
2024/04/16 05:18:59;;;;;;;0.90;0.90;;;;;;;4.78;83.62;97710.47;6432491;22;19994;-91
2024/04/16 05:21:24;;;;;;;0.90;0.90;;;;;;;4.81;83.28;97713.25;6476435;22;20114;-90
2024/04/16 05:23:50;;;;;;;1.00;1.00;;;;;;;4.95;81.47;97716.38;6430731;22;20384;-92
2024/04/16 05:26:16;;;;;;;0.88;0.88;;;;;;;4.94;82.60;97709.28;6434812;22;20013;-92
2024/04/16 05:28:42;;;;;;;1.00;1.00;;;;;;;5.03;80.88;97711.34;6393030;22;20463;-92
2024/04/16 05:31:07;;;;;;;0.98;0.98;;;;;;;5.12;81.25;97719.56;6434419;22;20005;-91
2024/04/16 05:33:33;;;;;;;0.90;0.90;;;;;;;5.11;81.46;97717.78;6434376;22;20000;-92
2024/04/16 05:35:58;;;;;;;0.80;0.80;;;;;;;5.16;81.40;97724.13;6434355;22;20454;-92
2024/04/16 05:38:24;;;;;;;0.80;0.80;;;;;;;5.15;82.70;97736.44;6478630;22;19994;-92
2024/04/16 05:40:50;;;;;;;1.00;1.00;;;;;;;5.27;81.50;97729.78;6400447;22;20015;-90
2024/04/16 05:43:15;;;;;;;0.90;0.90;;;;;;;5.19;82.71;97742.75;6434078;22;20049;-91
2024/04/16 05:45:41;;;;;;;0.90;0.90;;;;;;;5.31;81.68;97737.84;6393474;22;19997;-90
2024/04/16 05:48:07;;;;;;;0.90;0.90;;;;;;;5.34;81.72;97737.97;6438760;22;20008;-91
2024/04/16 05:50:33;;;;;;;0.90;0.90;;;;;;;5.40;80.55;97747.84;6440204;22;20343;-91
2024/04/16 05:52:58;;;;;;;0.90;0.90;;;;;;;5.55;80.61;97732.47;6443108;22;19994;-92
2024/04/16 05:55:24;;;;;;;0.90;0.90;;;;;;;5.50;80.62;97739.38;6398581;22;19994;-90
2024/04/16 05:57:49;;;;;;;0.90;0.90;;;;;;;5.60;80.91;97746.75;6437582;22;20000;-91
2024/04/16 06:00:15;;;;;;;0.90;0.90;;;;;;;5.65;79.91;97746.91;6437406;22;19994;-90
2024/04/16 06:02:40;;;;;;;0.80;0.80;;;;;;;5.63;80.09;97746.88;6395325;22;20004;-91
2024/04/16 06:05:06;;;;;;;0.80;0.80;;;;;;;5.68;79.85;97756.72;6481449;22;19994;-93
2024/04/16 06:07:31;;;;;;;0.80;0.80;;;;;;;5.69;80.42;97743.50;6444175;22;20008;-91
2024/04/16 06:09:57;;;;;;;0.80;0.80;;;;;;;5.78;79.85;97748.22;6401709;22;20009;-93
2024/04/16 06:12:22;;;;;;;0.90;0.90;;;;;;;5.80;77.74;97746.53;6395925;22;19994;-92
2024/04/16 06:14:48;;;;;;;0.80;0.80;;;;;;;5.90;78.01;97735.38;6395035;22;20000;-91
2024/04/16 06:17:13;;;;;;;0.80;0.80;;;;;;;5.75;78.38;97749.03;6477494;22;20026;-92
2024/04/16 06:19:41;;;;;;;0.85;0.85;;;;;;;5.72;79.36;97745.38;6432170;22;20135;-93
2024/04/16 06:22:07;;;;;;;0.90;0.90;;;;;;;5.83;79.01;97743.97;6477954;22;19994;-91
2024/04/16 06:24:32;;;;;;;0.90;0.90;;;;;;;5.89;77.89;97742.41;6433627;22;20005;-92
2024/04/16 06:26:57;;;;;;;0.90;0.90;;;;;;;6.25;77.28;97738.22;6392462;22;19998;-92
2024/04/16 06:29:25;;;;;;;0.90;0.90;;;;;;;6.53;76.08;97739.94;6393312;22;20006;-92
2024/04/16 06:31:50;;;;;;;0.90;0.90;;;;;;;6.43;75.23;97731.72;6396322;22;19994;-90
2024/04/16 06:34:16;;;;;;;0.80;0.80;;;;;;;6.46;75.59;97736.19;6452839;22;20005;-91
2024/04/16 06:36:41;;;;;;;0.80;0.80;;;;;;;6.40;75.92;97736.91;6497439;22;19986;-92
2024/04/16 06:39:08;;;;;;;0.88;0.88;;;;;;;6.61;75.38;97726.06;6441998;22;19997;-92
2024/04/16 06:41:34;;;;;;;0.80;0.80;;;;;;;6.54;75.01;97724.06;6438144;22;19993;-91
2024/04/16 06:43:59;;;;;;;0.80;0.80;;;;;;;6.57;75.92;97720.63;6433460;22;20005;-92
2024/04/16 06:46:25;;;;;;;0.80;0.80;;;;;;;6.25;76.02;97714.38;6391774;22;20009;-92
2024/04/16 06:48:50;;;;;;;0.70;0.70;;;;;;;6.22;75.87;97717.81;6477403;22;20375;-92
2024/04/16 06:51:16;;;;;;;0.80;0.80;;;;;;;6.13;76.21;97709.59;6477193;22;20008;-92
2024/04/16 06:53:41;;;;;;;0.80;0.80;;;;;;;6.32;75.13;97711.06;6390639;22;20029;-91
2024/04/16 06:56:07;;;;;;;0.80;0.80;;;;;;;6.29;74.52;97709.22;6432059;22;20291;-91
2024/04/16 06:58:33;;;;;;;0.80;0.80;;;;;;;6.61;74.29;97712.81;6433519;22;19994;-91
2024/04/16 07:00:59;;;;;;;0.80;0.80;;;;;;;6.50;74.55;97703.63;6433523;22;20071;-91
2024/04/16 07:03:25;;;;;;;0.70;0.70;;;;;;;6.88;73.80;97706.47;6434877;22;19993;-91
2024/04/16 07:05:50;;;;;;;0.80;0.80;;;;;;;6.94;72.46;97702.19;6478249;22;19998;-91
2024/04/16 07:08:17;;;;;;;0.70;0.70;;;;;;;7.14;71.49;97699.22;6449647;22;20041;-91
2024/04/16 07:10:45;;;;;;;0.80;0.80;;;;;;;7.52;69.86;97696.59;6409240;22;19990;-92
2024/04/16 07:13:11;;;;;;;0.70;0.70;;;;;;;7.56;69.52;97694.03;6439689;22;19997;-91
2024/04/16 07:15:36;;;;;;;0.80;0.80;;;;;;;7.42;70.93;97698.13;6392446;22;20005;-92
2024/04/16 07:18:02;;;;;;;0.80;0.80;;;;;;;7.75;67.73;97689.19;6391886;22;20002;-92
2024/04/16 07:20:28;;;;;;;0.70;0.70;;;;;;;8.20;68.18;97689.34;6435540;22;20301;-92
2024/04/16 07:22:53;;;;;;;0.70;0.70;;;;;;;8.14;67.58;97697.16;6434534;22;19997;-92
2024/04/16 07:25:19;;;;;;;0.70;0.70;;;;;;;8.48;66.27;97691.75;6478146;22;20005;-93
2024/04/16 07:27:45;;;;;;;0.80;0.80;;;;;;;8.58;64.88;97674.22;6433722;22;20008;-93
2024/04/16 07:30:10;;;;;;;0.70;0.70;;;;;;;8.51;63.25;97677.59;6329465;22;19999;-94
2024/04/16 07:32:36;;;;;;;0.73;0.73;;;;;;;8.90;63.25;97673.91;6376191;22;20006;-92
2024/04/16 07:35:01;;;;;;;0.70;0.70;;;;;;;9.13;63.35;97674.34;6378719;22;20014;-93
2024/04/16 07:37:27;;;;;;;0.77;0.77;;;;;;;9.10;63.06;97676.94;6339896;22;20003;-91
2024/04/16 07:39:52;;;;;;;0.85;0.85;;;;;;;9.16;61.98;97671.75;6383895;22;19995;-92
2024/04/16 07:42:18;;;;;;;0.75;0.75;;;;;;;9.34;61.52;97671.13;6341839;22;20010;-93
2024/04/16 07:44:44;;;;;;;0.60;0.60;;;;;;;9.20;62.55;97668.28;6384585;22;20018;-91
2024/04/16 07:47:10;;;;;;;0.70;0.70;;;;;;;9.12;61.76;97677.88;6305283;22;20013;-92
2024/04/16 07:49:35;;;;;;;0.75;0.75;;;;;;;8.83;59.83;97666.69;6388903;22;20111;-92
2024/04/16 07:52:01;;;;;;;0.70;0.70;;;;;;;8.88;58.07;97660.59;6387673;22;20014;-93
2024/04/16 07:54:28;;;;;;;0.70;0.70;;;;;;;8.77;54.77;97666.56;6347365;22;20010;-92
2024/04/16 07:56:53;;;;;;;0.70;0.70;;;;;;;8.33;52.86;97655.91;6346569;22;20014;-92
2024/04/16 07:59:19;;;;;;;0.80;0.80;;;;;;;8.57;53.52;97644.91;6384879;22;20394;-93
2024/04/16 08:01:45;;;;;;;0.70;0.70;;;;;;;8.90;52.81;97657.97;6385600;22;20003;-93
2024/04/16 08:04:10;;;;;;;0.80;0.80;;;;;;;8.65;53.39;97652.19;6303163;22;19999;-92
2024/04/16 08:06:36;;;;;;;0.70;0.70;;;;;;;8.40;52.12;97642.84;6387492;22;20006;-94
2024/04/16 08:09:02;;;;;;;0.70;0.70;;;;;;;8.51;53.06;97653.66;6344633;22;20009;-92
2024/04/16 08:11:27;;;;;;;0.85;0.85;;;;;;;8.58;50.78;97636.09;6385597;22;19997;-94
2024/04/16 08:13:54;;;;;;;0.75;0.75;;;;;;;8.53;51.29;97636.00;6344210;22;19996;-92
2024/04/16 08:16:20;;;;;;;0.77;0.77;;;;;;;8.57;50.89;97642.25;6385971;22;20352;-92
2024/04/16 08:18:46;;;;;;;0.80;0.80;;;;;;;8.43;50.17;97626.97;6347522;22;20477;-92
2024/04/16 08:21:11;;;;;;;0.80;0.80;;;;;;;8.52;49.99;97622.66;6385025;22;19995;-92
2024/04/16 08:23:37;;;;;;;0.80;0.80;;;;;;;8.43;50.16;97624.31;6377402;22;20010;-93
2024/04/16 08:26:04;;;;;;;0.80;0.80;;;;;;;8.74;50.37;97619.56;6336289;22;19999;-94
2024/04/16 08:28:31;;;;;;;0.80;0.80;;;;;;;8.85;51.13;97617.06;6378904;22;20006;-91
2024/04/16 08:30:57;;;;;;;;;;;;;;;8.69;50.27;97606.16;6379897;22;20074;-93
2024/04/16 08:33:24;;;;;;;0.80;0.80;;;;;;;8.66;51.22;97619.41;6380198;22;20322;-92
2024/04/16 08:35:50;;;;;;;0.70;0.70;;;;;;;8.45;50.99;97622.56;6383673;22;19995;-91
2024/04/16 08:38:18;;;;;;;0.80;0.80;;;;;;;8.50;51.05;97625.31;6345336;22;19999;-92
2024/04/16 08:40:45;;;;;;;0.80;0.80;;;;;;;8.36;50.98;97614.41;6379280;22;20002;-93
2024/04/16 08:43:11;;;;;;;0.80;0.80;;;;;;;8.35;51.63;97639.16;6334600;22;19999;-92
2024/04/16 08:45:38;;;;;;;0.90;0.90;;;;;;;8.27;52.71;97648.72;6376942;22;20104;-92
2024/04/16 08:48:05;;;;;;;0.80;0.80;;;;;;;8.34;53.58;97634.72;6334076;22;20010;-92
2024/04/16 08:50:32;;;;;;;;;;;;;;;8.27;53.36;97632.78;6376403;22;19995;-92
2024/04/16 08:52:58;;;;;;;0.70;0.70;;;;;;;8.26;53.17;97632.75;6376529;22;19977;-92
2024/04/16 08:55:27;;;;;;;0.82;0.82;;;;;;;8.24;53.32;97643.38;6376637;22;19996;-91
2024/04/16 08:57:54;;;;;;;0.70;0.70;;;;;;;8.32;54.90;97622.25;6293368;22;20010;-91
2024/04/16 09:00:20;;;;;;;0.80;0.80;;;;;;;8.30;54.28;97643.47;6335254;22;19999;-92
2024/04/16 09:02:46;;;;;;;0.70;0.70;;;;;;;8.08;53.35;97642.13;6335852;22;20003;-91
2024/04/16 09:05:12;;;;;;;0.70;0.70;;;;;;;8.11;54.36;97638.66;6378290;22;20014;-92
2024/04/16 09:07:38;;;;;;;0.80;0.80;;;;;;;8.33;53.64;97640.88;6378381;22;19999;-91
2024/04/16 09:10:14;;;;;;;0.80;0.80;;;;;;;8.44;53.22;97631.41;6339095;22;20003;-92
2024/04/16 09:12:41;;;;;;;0.80;0.80;;;;;;;8.56;53.49;97625.41;6295103;22;19999;-92
2024/04/16 09:15:09;;;;;;;0.80;0.80;;;;;;;8.64;53.50;97625.56;6335079;22;20010;-93
2024/04/16 09:17:34;;;;;;;0.80;0.80;;;;;;;8.82;53.54;97628.56;6378452;22;19999;-91
2024/04/16 09:20:00;;;;;;;0.80;0.80;;;;;;;9.18;52.56;97630.06;6377032;22;20014;-92
2024/04/16 09:22:25;;;;;;;0.70;0.70;;;;;;;9.13;51.87;97630.00;6294499;22;20000;-92
2024/04/16 09:24:51;;;;;;;0.80;0.80;;;;;;;8.98;51.62;97625.31;6334824;22;20003;-93
2024/04/16 09:27:17;;;;;;;0.70;0.70;;;;;;;9.20;52.05;97623.03;6378293;22;20152;-92
2024/04/16 09:29:44;;;;;;;0.70;0.70;;;;;;;8.85;51.80;97625.06;6375224;22;20011;-92
2024/04/16 09:32:10;;;;;;;0.80;0.80;;;;;;;8.79;52.10;97616.97;6376077;22;20692;-93
2024/04/16 09:34:42;;;;;;;0.70;0.70;;;;;;;8.68;52.94;97625.66;6335320;22;20507;-93
2024/04/16 09:37:08;;;;;;;0.70;0.70;;;;;;;8.89;53.00;97609.19;6334727;22;20006;-90
2024/04/16 09:39:34;;;;;;;0.70;0.70;;;;;;;9.04;53.61;97602.34;6335469;22;20481;-93
2024/04/16 09:42:00;;;;;;;0.73;0.73;;;;;;;9.19;53.83;97608.78;6379013;22;20137;-93
2024/04/16 09:44:26;;;;;;;0.70;0.70;;;;;;;9.36;53.14;97611.75;6334977;22;19995;-91
2024/04/16 09:46:53;;;;;;;0.80;0.80;;;;;;;9.34;51.17;97632.13;6294928;22;20011;-93
2024/04/16 09:49:18;;;;;;;0.80;0.80;;;;;;;9.32;51.38;97619.66;6377525;22;20279;-91
2024/04/16 09:51:45;;;;;;;0.80;0.80;;;;;;;9.42;50.09;97609.16;6379211;22;20007;-95
2024/04/16 09:54:11;;;;;;;0.80;0.80;;;;;;;9.74;51.03;97588.34;6378285;22;19999;-90
2024/04/16 09:56:38;;;;;;;0.80;0.80;;;;;;;9.83;51.31;97582.25;6335159;22;19999;-90
2024/04/16 09:59:07;;;;;;;0.80;0.80;;;;;;;9.70;51.20;97589.19;6335147;22;20013;-91
2024/04/16 10:01:33;;;;;;;0.70;0.70;;;;;;;9.55;51.65;97582.75;6375484;22;19999;-91
2024/04/16 10:03:59;;;;;;;0.70;0.70;;;;;;;9.46;52.27;97587.06;6375488;22;20010;-90
2024/04/16 10:06:24;;;;;;;0.70;0.70;;;;;;;9.03;52.76;97579.28;6294012;22;20003;-90
2024/04/16 10:08:51;;;;;;;0.70;0.70;;;;;;;8.90;52.89;97600.31;6376686;22;20092;-92
2024/04/16 10:11:18;;;;;;;0.80;0.80;;;;;;;8.99;53.95;97579.22;6293973;22;20004;-91
2024/04/16 10:13:44;;;;;;;0.80;0.80;;;;;;;8.75;54.15;97584.09;6335945;22;20029;-93
2024/04/16 10:16:17;;;;;;;0.70;0.70;;;;;;;8.78;54.89;97616.09;6305253;22;20011;-88
2024/04/16 10:18:51;;;;;;;0.80;0.80;;;;;;;8.98;55.33;97597.81;6353846;22;20243;-90
2024/04/16 10:21:24;;;;;;;0.80;0.80;;;;;;;8.97;54.59;97604.91;6391328;22;20398;-91
2024/04/16 10:24:02;;;;;;;0.80;0.80;;;;;;;8.84;54.39;97608.22;6339926;22;20011;-91
2024/04/16 10:26:31;;;;;;;0.80;0.80;;;;;;;8.57;56.18;97605.94;6378419;22;19999;-89
2024/04/16 10:28:59;;;;;;;0.70;0.70;;;;;;;8.63;56.65;97608.72;6293867;22;20417;-90
2024/04/16 10:31:33;;;;;;;0.80;0.80;;;;;;;8.62;57.67;97603.34;6333200;22;20030;-89
2024/04/16 10:34:02;;;;;;;0.70;0.70;;;;;;;8.28;60.89;97623.94;6335465;22;20362;-89
2024/04/16 10:36:28;;;;;;;0.80;0.80;;;;;;;7.84;61.79;97613.28;6374335;22;20478;-88
2024/04/16 10:38:57;;;;;;;0.80;0.80;;;;;;;7.50;64.34;97592.16;6332129;22;20007;-88
2024/04/16 10:41:28;;;;;;;0.80;0.80;;;;;;;7.40;63.60;97607.88;6332673;22;20457;-89
2024/04/16 10:43:55;;;;;;;0.80;0.80;;;;;;;7.35;64.87;97603.31;6374741;22;20003;-89
2024/04/16 10:46:22;;;;;;;0.80;0.80;;;;;;;7.54;65.21;97618.81;6337866;22;20079;-88
2024/04/16 10:48:48;;;;;;;0.90;0.90;;;;;;;7.51;64.79;97617.84;6383011;22;20014;-88
2024/04/16 10:51:14;;;;;;;0.82;0.82;;;;;;;7.55;65.48;97611.75;6340185;22;20027;-89
2024/04/16 10:53:40;;;;;;;0.80;0.80;;;;;;;7.44;65.82;97615.06;6340927;22;20035;-89
2024/04/16 10:56:08;;;;;;;0.90;0.90;;;;;;;7.43;66.60;97613.25;6339497;22;20083;-89
2024/04/16 10:58:34;;;;;;;0.80;0.80;;;;;;;7.55;65.84;97628.56;6389530;22;20007;-90
2024/04/16 11:01:00;;;;;;;0.80;0.80;;;;;;;7.84;65.58;97610.63;6395791;22;20017;-90
2024/04/16 11:03:28;;;;;;;0.80;0.80;;;;;;;7.97;64.60;97610.03;6343642;22;19995;-90
2024/04/16 11:05:56;;;;;;;0.80;0.80;;;;;;;8.10;64.95;97611.19;6383707;22;20070;-88
2024/04/16 11:08:21;;;;;;;0.80;0.80;;;;;;;8.16;65.08;97599.78;6382327;22;19995;-89
2024/04/16 11:10:53;;;;;;;0.80;0.80;;;;;;;8.25;63.55;97594.66;6382242;22;20014;-92
2024/04/16 11:13:19;;;;;;;0.70;0.70;;;;;;;8.61;63.13;97585.63;6294764;22;20000;-89
2024/04/16 11:15:45;;;;;;;0.80;0.80;;;;;;;8.85;60.86;97588.72;6373568;22;20091;-89
2024/04/16 11:18:11;;;;;;;0.80;0.80;;;;;;;8.72;60.86;97576.09;6373550;22;20075;-89
2024/04/16 11:20:38;;;;;;;0.80;0.80;;;;;;;9.17;60.90;97580.38;6333129;22;20209;-89
2024/04/16 11:23:04;;;;;;;0.80;0.80;;;;;;;9.09;59.34;97579.38;6378279;22;20003;-89
2024/04/16 11:25:31;;;;;;;0.80;0.80;;;;;;;9.44;59.53;97571.94;6334989;22;20003;-89
2024/04/16 11:27:58;;;;;;;0.80;0.80;;;;;;;9.61;59.80;97582.81;6298486;22;19999;-90
2024/04/16 11:30:24;;;;;;;0.70;0.70;;;;;;;9.79;59.30;97571.53;6376879;22;20003;-90
2024/04/16 11:32:51;;;;;;;0.80;0.80;;;;;;;9.75;60.03;97587.47;6335700;22;20036;-89
2024/04/16 11:35:20;;;;;;;0.80;0.80;;;;;;;9.40;60.50;97591.41;6376910;22;20003;-91
2024/04/16 11:37:46;;;;;;;0.70;0.70;;;;;;;9.15;60.91;97583.03;6335653;22;19999;-90